Topock, Arizona
Current Conditions -  °F | °C
As of 11:56 AM on Tuesday 27 Jan 2015 (Local Time) from KEED Reporting Station
Overcast Overcast  
Wind Chill: 60°   Ceiling: 4500
Heat Index: 60°   Visibility: 10mi
Dew Point: 52°   Wind: 0mph
Humidity: 75%   Direction: NA
Pressure: 30.26"   Gusts: NA
Location:  34.73°N, 114.48°W
Report Text: KEED 271856Z AUTO 00000KT 10SM OVC045 16/11 A3026 RMK AO2 SLP235 T01560111
Loading
Personal Weather Stations






























Interactive Weather Map New forecast layout! Learn more

10-Day Weather Forecast

Advertisements
Track Severe Weather on mobile